< < Back
Terminal Aerodrome Forecast


Current Version              Previous Versions:   1  2  3  4  5  6  7  8  9  

Terminal Aerodrome Forecast

655
FTUS42 KILM 272300
TAFILM
TAF
KILM 272321Z 2800/2824 35007KT P6SM SCT040 SCT120
     FM281400 34010G18KT P6SM FEW250=

Latest METAR

893
SAUS70 KWBC 280100 RRO
MTRILM
METAR KILM 280053Z 00000KT 10SM CLR 02/M02 A2992 RMK AO2 SLP130
T00171022


USA.gov is the U.S. government's official web portal to all federal, state and local government web resources and services.